createdAt,value
2022-11-21T00:04:15.250Z,8.8
2022-11-21T00:09:52.185Z,8.8
2022-11-21T00:15:29.453Z,8.9
2022-11-21T00:20:56.581Z,8.9
2022-11-21T00:26:22.165Z,8.9
2022-11-21T00:31:59.395Z,8.9
2022-11-21T00:37:21.295Z,8.9
2022-11-21T00:42:58.112Z,9
2022-11-21T00:53:41.294Z,8.9
2022-11-21T00:58:47.045Z,8.9
2022-11-21T01:04:24.740Z,8.9
2022-11-21T01:09:45.808Z,8.9
2022-11-21T01:20:15.124Z,9
2022-11-21T01:25:52.412Z,8.9
2022-11-21T01:31:29.588Z,9
2022-11-21T01:36:52.365Z,9.2
2022-11-21T01:42:14.397Z,9.3
2022-11-21T01:47:52.638Z,9.7
2022-11-21T01:53:37.712Z,9.4
2022-11-21T02:04:07.635Z,9.3
2022-11-21T02:09:30.691Z,9.3
2022-11-21T02:14:37.212Z,9.5
2022-11-21T02:19:59.937Z,9.5
2022-11-21T02:30:18.693Z,9.4
2022-11-21T02:35:40.135Z,9.4
2022-11-21T02:41:02.593Z,9.4
2022-11-21T02:46:25.891Z,9.5
2022-11-21T02:52:03.512Z,9.7
2022-11-21T02:57:42.580Z,9.6
2022-11-21T03:03:09.881Z,9.8
2022-11-21T03:08:48.422Z,9.8
2022-11-21T03:14:26.554Z,10
2022-11-21T03:19:48.299Z,10.5
2022-11-21T03:25:26.007Z,10.5
2022-11-21T03:31:03.839Z,9.8
2022-11-21T03:36:41.117Z,9.7
2022-11-21T03:42:19.646Z,9.7
2022-11-21T03:47:42.454Z,9.8
2022-11-21T03:53:19.712Z,9.9
2022-11-21T03:58:42.003Z,10.1
2022-11-21T04:04:25.916Z,10.1
2022-11-21T04:10:03.720Z,10.6
2022-11-21T04:15:46.760Z,11.6
2022-11-21T04:21:25.176Z,12.9
2022-11-21T04:27:01.807Z,11.3
2022-11-21T04:32:40.426Z,9.3
2022-11-21T04:37:47.780Z,9.3
2022-11-21T04:43:25.021Z,8.8
2022-11-21T04:48:50.577Z,8.8
2022-11-21T04:54:33.430Z,8.4
2022-11-21T04:59:40.205Z,8.3
2022-11-21T05:05:18.970Z,8.1
2022-11-21T05:10:25.765Z,7.9
2022-11-21T05:16:03.319Z,7.8
2022-11-21T05:21:44.029Z,7.4
2022-11-21T05:27:06.200Z,7.3
2022-11-21T05:32:31.448Z,7.2
2022-11-21T05:38:14.825Z,7.1
2022-11-21T05:43:52.551Z,7
2022-11-21T05:54:21.463Z,6.6
2022-11-21T06:00:03.552Z,6.4
2022-11-21T06:05:31.616Z,6.4
2022-11-21T06:11:13.876Z,6.2
2022-11-21T06:16:40.286Z,6.1
2022-11-21T06:21:51.844Z,6.1
2022-11-21T06:27:31.226Z,6
2022-11-21T06:33:14.268Z,6
2022-11-21T06:38:42.663Z,5.8
2022-11-21T06:44:20.777Z,5.7
2022-11-21T06:49:44.600Z,5.6
2022-11-21T06:55:24.692Z,5.4
2022-11-21T07:01:02.303Z,5.1
2022-11-21T07:06:45.870Z,4.9
2022-11-21T07:13:26.586Z,4.8
2022-11-21T07:19:04.759Z,4.7
2022-11-21T07:24:45.721Z,4.7
2022-11-21T07:30:24.998Z,4.7
2022-11-21T07:36:03.345Z,4.7
2022-11-21T07:41:26.143Z,4.6
2022-11-21T07:47:09.507Z,4.6
2022-11-21T07:52:31.536Z,4.7
2022-11-21T07:58:14.926Z,4.7
2022-11-21T08:03:38.816Z,4.8
2022-11-21T08:09:17.784Z,4.8
2022-11-21T08:15:01.107Z,5
2022-11-21T08:20:39.066Z,4.8
2022-11-21T08:26:22.193Z,4.9
2022-11-21T08:32:06.609Z,4.9
2022-11-21T08:37:44.877Z,5.2
2022-11-21T08:43:07.778Z,5.3
2022-11-21T08:48:58.529Z,5.4
2022-11-21T08:54:41.134Z,5.3
2022-11-21T09:00:20.237Z,5.8
2022-11-21T09:06:04.619Z,5.8
2022-11-21T09:11:28.516Z,5.4
2022-11-21T09:17:15.803Z,5.9
2022-11-21T09:22:55.822Z,5.9
2022-11-21T09:28:33.486Z,5.9
2022-11-21T09:34:11.916Z,5.8
2022-11-21T09:39:53.009Z,5.8
2022-11-21T09:45:30.937Z,5.6
2022-11-21T09:51:10.918Z,5.2
2022-11-21T09:56:49.509Z,5
2022-11-21T10:02:27.562Z,4.9
2022-11-21T10:08:13.131Z,4.9
2022-11-21T10:13:54.588Z,4.9
2022-11-21T10:19:34.649Z,5.2
2022-11-21T10:25:13.108Z,5.3
2022-11-21T10:30:51.939Z,5.1
2022-11-21T10:36:30.405Z,5.2
2022-11-21T10:42:12.968Z,5.1
2022-11-21T10:47:36.178Z,5
2022-11-21T10:53:14.206Z,5.1
2022-11-21T10:58:56.581Z,5
2022-11-21T11:05:20.514Z,5
2022-11-21T11:10:44.628Z,5.3
2022-11-21T11:16:41.701Z,5.3
2022-11-21T11:22:32.044Z,5.4
2022-11-21T11:27:55.811Z,5.4
2022-11-21T11:33:34.019Z,5.4
2022-11-21T11:38:56.787Z,5.6
2022-11-21T11:44:21.577Z,5.5
2022-11-21T11:50:30.132Z,5.8
2022-11-21T11:56:08.196Z,5.7
2022-11-21T12:01:47.018Z,5.8
2022-11-21T12:09:11.418Z,6.2
2022-11-21T12:14:51.050Z,5.9
2022-11-21T12:20:37.647Z,6
2022-11-21T12:26:17.150Z,6.3
2022-11-21T12:31:55.662Z,5.9
2022-11-21T12:37:47.129Z,6.1
2022-11-21T12:43:31.386Z,6.4
2022-11-21T12:48:58.033Z,6.5
2022-11-21T12:54:42.461Z,6.2
2022-11-21T13:00:08.697Z,5.7
2022-11-21T13:05:53.903Z,5.3
2022-11-21T13:11:33.713Z,5.3
2022-11-21T13:17:12.585Z,5.3
2022-11-21T13:22:50.122Z,5.2
2022-11-21T13:28:14.054Z,5.2
2022-11-21T13:33:54.196Z,5.2
2022-11-21T13:39:32.983Z,5.3
2022-11-21T13:45:49.811Z,5.3
2022-11-21T13:51:35.348Z,5.2
2022-11-21T13:57:21.607Z,5.3
2022-11-21T14:03:00.150Z,5.2
2022-11-21T14:08:39.707Z,5.1
2022-11-21T14:14:22.072Z,5.1
2022-11-21T14:19:59.755Z,5.1
2022-11-21T14:25:43.548Z,5
2022-11-21T14:31:28.172Z,5
2022-11-21T14:37:09.679Z,4.9
2022-11-21T14:43:26.851Z,4.9
2022-11-21T14:48:55.217Z,4.8
2022-11-21T14:54:40.289Z,4.8
2022-11-21T15:01:18.739Z,4.8
2022-11-21T15:07:27.036Z,4.8
2022-11-21T15:15:05.889Z,4.7
2022-11-21T15:21:19.075Z,4.4
2022-11-21T15:26:56.944Z,4.3
2022-11-21T15:32:39.557Z,4.1
2022-11-21T15:38:57.190Z,4.1
2022-11-21T16:01:47.364Z,4.1
2022-11-21T16:07:17.264Z,4.1
2022-11-21T16:13:01.809Z,4.1
2022-11-21T16:18:44.773Z,4.1
2022-11-21T16:24:30.861Z,4
2022-11-21T16:35:32.337Z,4
2022-11-21T16:41:20.171Z,4.1
2022-11-21T16:46:42.920Z,3.9
2022-11-21T16:52:25.536Z,4.1
2022-11-21T16:58:07.835Z,4.1
2022-11-21T17:03:32.522Z,4.2
2022-11-21T17:09:11.409Z,4.1
2022-11-21T17:14:33.723Z,4.1
2022-11-21T17:25:35.740Z,4.1
2022-11-21T17:31:19.947Z,4.1
2022-11-21T17:37:01.270Z,4.1
2022-11-21T17:42:40.617Z,4.1
2022-11-21T17:48:25.736Z,4
2022-11-21T17:59:20.218Z,3.9
2022-11-21T18:05:06.037Z,3.9
2022-11-21T18:16:51.042Z,3.9
2022-11-21T18:22:16.097Z,4
2022-11-21T18:27:55.166Z,3.9
2022-11-21T18:33:36.420Z,3.9
2022-11-21T18:39:28.985Z,3.8
2022-11-21T18:45:13.014Z,3.8
2022-11-21T18:51:21.824Z,3.9
2022-11-21T18:57:04.498Z,3.9
2022-11-21T19:02:28.569Z,3.9
2022-11-21T19:07:56.276Z,3.9
2022-11-21T19:13:35.869Z,3.9
2022-11-21T19:19:50.317Z,3.9
2022-11-21T19:25:29.999Z,3.9
2022-11-21T19:31:09.678Z,4
2022-11-21T19:36:52.537Z,3.9
2022-11-21T19:42:18.314Z,3.9
2022-11-21T19:47:44.062Z,4
2022-11-21T19:53:34.602Z,4.1
2022-11-21T19:58:44.351Z,4
2022-11-21T20:04:12.199Z,4
2022-11-21T20:15:38.311Z,4
2022-11-21T20:21:02.384Z,3.9
2022-11-21T20:26:45.251Z,3.9
2022-11-21T20:32:29.134Z,3.9
2022-11-21T20:38:59.742Z,3.9
2022-11-21T20:46:40.655Z,3.9
2022-11-21T20:55:21.026Z,3.8
2022-11-21T21:01:01.413Z,3.7
2022-11-21T21:06:40.607Z,3.8
2022-11-21T21:13:04.875Z,3.8
2022-11-21T21:24:39.532Z,3.9
2022-11-21T21:30:25.885Z,3.9
2022-11-21T21:36:08.386Z,3.9
2022-11-21T21:41:50.849Z,3.8
2022-11-21T21:47:30.030Z,3.7
2022-11-21T21:53:08.424Z,3.6
2022-11-21T21:58:53.018Z,3.6
2022-11-21T22:04:32.292Z,3.7
2022-11-21T22:09:42.731Z,3.8
2022-11-21T22:15:20.090Z,3.8
2022-11-21T22:20:58.875Z,3.8
2022-11-21T22:26:55.155Z,3.9
2022-11-21T22:32:19.754Z,3.8
2022-11-21T22:37:58.707Z,3.8
2022-11-21T22:43:26.774Z,3.8
2022-11-21T22:49:05.316Z,3.6
2022-11-21T22:54:31.333Z,3.6
2022-11-21T23:00:09.370Z,3.6
2022-11-21T23:05:47.655Z,3.6
2022-11-21T23:11:26.320Z,3.6
2022-11-21T23:16:49.213Z,3.6
2022-11-21T23:21:56.591Z,3.8
2022-11-21T23:27:18.984Z,3.8
2022-11-21T23:32:41.581Z,3.8
2022-11-21T23:38:18.405Z,3.7
2022-11-21T23:43:56.694Z,3.6
2022-11-21T23:49:19.305Z,3.5
2022-11-21T23:54:41.430Z,3.5
